Airfield :
LOGIN :

Register | Disclaimer

   EN    FR    IT 

 










Legend :    VFR   Marginal VFR   IFR   Intensive IFR   Very Intensive IFR
Visi :
Ceiling :
>= 8 km
>= 3000ft
5 to 8 km
1000 to 3000 ft
1500m to 5 km
500 to 1000 ft
800 to 1500m
200 to 500 ft
< 800m
< 200 ft
Symbols :   Thunderstorms  Fog  Heavy snow  Heavy precipitations  Wind > 20 kt
SIGMETs :     Misc.  Thunderstorms  Icing  Turbulence  Mountain Waves  Volcanic Ashes







- Airport Elevation : 278 ft
- IATA code : RJK


LDRI - Rijeka

CURRENT METAR :
  • 200330Z 06014KT 9999 SCT043 03/M04 Q1010

EXPIRED METARs :
  • 200300Z 06012KT 9999 SCT043 03/M04 Q1010
  • 200230Z 05012G24KT 360V120 9999 SCT043 04/M04 Q1010
  • 200200Z 05011KT 010V120 9999 SCT043 03/M04 Q1010
  • 200130Z 05011KT 010V120 9999 SCT043 03/M04 Q1011
  • 200100Z 05013KT 010V120 9999 SCT043 03/M04 Q1011

TAF TAF LDRI
Valid from the 20 at 00:00 until the 21 at 00:00 UTC


192325Z 2000/2100 05012KT 9999 FEW030 BKN045 TX06/2012Z TN02/2005Z
TEMPO 2014/2018 05015G30KT
BECMG 2017/2019 05025G40KT
No reported NOTAMs for that airfield.



MET'MAP, your aeronautical weather chart ! - Copyright ORBIFLY December 2007 - Disclaimer

ORBIFLY MET'MAP TEAM :

Programming & Development : Alexandra Zaïnal
Concept & Development : Baudouin d'Aumeries
Co-Development & Prog : Marc-Olivier Méhu
Technical & hardware support : Manuel Goepfert

Contact : metmap@orbifly.com




SOURCES & CREDITS :

   NOAA